sensor_id;sensor_type;location;lat;lon;timestamp;temperature;humidity
44509;DHT22;30214;52.246;14.408;2023-03-14T00:01:21;12.70;99.90
44509;DHT22;30214;52.246;14.408;2023-03-14T00:03:50;12.60;99.90
44509;DHT22;30214;52.246;14.408;2023-03-14T00:06:18;12.60;99.90
44509;DHT22;30214;52.246;14.408;2023-03-14T00:08:46;12.60;99.90
44509;DHT22;30214;52.246;14.408;2023-03-14T00:11:16;12.50;99.90
44509;DHT22;30214;52.246;14.408;2023-03-14T00:13:46;12.50;99.90
44509;DHT22;30214;52.246;14.408;2023-03-14T00:16:14;12.50;99.90
44509;DHT22;30214;52.246;14.408;2023-03-14T00:18:41;12.50;99.90
44509;DHT22;30214;52.246;14.408;2023-03-14T00:21:10;12.50;99.90
44509;DHT22;30214;52.246;14.408;2023-03-14T00:23:39;12.50;99.90
44509;DHT22;30214;52.246;14.408;2023-03-14T00:26:09;12.50;99.90
44509;DHT22;30214;52.246;14.408;2023-03-14T00:28:39;12.40;99.90
44509;DHT22;30214;52.246;14.408;2023-03-14T00:31:10;12.40;99.90
44509;DHT22;30214;52.246;14.408;2023-03-14T00:33:40;12.40;99.90
44509;DHT22;30214;52.246;14.408;2023-03-14T00:36:09;12.40;99.90
44509;DHT22;30214;52.246;14.408;2023-03-14T00:38:38;12.30;99.90
44509;DHT22;30214;52.246;14.408;2023-03-14T00:41:09;12.30;99.90
44509;DHT22;30214;52.246;14.408;2023-03-14T00:43:38;12.30;99.90
44509;DHT22;30214;52.246;14.408;2023-03-14T00:46:06;12.30;99.90
44509;DHT22;30214;52.246;14.408;2023-03-14T00:48:33;12.30;99.90
44509;DHT22;30214;52.246;14.408;2023-03-14T00:51:00;12.20;99.90
44509;DHT22;30214;52.246;14.408;2023-03-14T00:53:27;12.20;99.90
44509;DHT22;30214;52.246;14.408;2023-03-14T00:55:54;12.20;99.90
44509;DHT22;30214;52.246;14.408;2023-03-14T00:58:23;12.10;99.90
44509;DHT22;30214;52.246;14.408;2023-03-14T01:00:52;12.10;99.90
44509;DHT22;30214;52.246;14.408;2023-03-14T01:03:19;12.00;99.90
44509;DHT22;30214;52.246;14.408;2023-03-14T01:05:46;12.00;99.90
44509;DHT22;30214;52.246;14.408;2023-03-14T01:08:14;12.00;99.90
44509;DHT22;30214;52.246;14.408;2023-03-14T01:10:42;12.00;99.90
44509;DHT22;30214;52.246;14.408;2023-03-14T01:13:09;12.00;99.90
44509;DHT22;30214;52.246;14.408;2023-03-14T01:15:37;12.00;99.90
44509;DHT22;30214;52.246;14.408;2023-03-14T01:18:05;11.90;99.90
44509;DHT22;30214;52.246;14.408;2023-03-14T01:20:32;11.90;99.90
44509;DHT22;30214;52.246;14.408;2023-03-14T01:22:59;11.90;99.90
44509;DHT22;30214;52.246;14.408;2023-03-14T01:25:26;11.90;99.90
44509;DHT22;30214;52.246;14.408;2023-03-14T01:27:54;11.80;99.90
44509;DHT22;30214;52.246;14.408;2023-03-14T01:30:21;11.80;99.90
44509;DHT22;30214;52.246;14.408;2023-03-14T01:32:48;11.80;99.90
44509;DHT22;30214;52.246;14.408;2023-03-14T01:35:17;11.80;99.90
44509;DHT22;30214;52.246;14.408;2023-03-14T01:37:45;11.80;99.90
44509;DHT22;30214;52.246;14.408;2023-03-14T01:40:17;11.70;99.90
44509;DHT22;30214;52.246;14.408;2023-03-14T01:42:45;11.70;99.90
44509;DHT22;30214;52.246;14.408;2023-03-14T01:46:06;11.70;99.90
44509;DHT22;30214;52.246;14.408;2023-03-14T01:48:46;11.60;99.90
44509;DHT22;30214;52.246;14.408;2023-03-14T01:51:22;11.60;99.90
44509;DHT22;30214;52.246;14.408;2023-03-14T01:53:55;11.60;99.90
44509;DHT22;30214;52.246;14.408;2023-03-14T01:56:28;11.70;99.90
44509;DHT22;30214;52.246;14.408;2023-03-14T01:58:55;11.60;99.90
44509;DHT22;30214;52.246;14.408;2023-03-14T02:01:24;11.60;99.90
44509;DHT22;30214;52.246;14.408;2023-03-14T02:03:54;11.60;99.90
44509;DHT22;30214;52.246;14.408;2023-03-14T02:06:29;11.60;99.90
44509;DHT22;30214;52.246;14.408;2023-03-14T02:09:01;11.60;99.90
44509;DHT22;30214;52.246;14.408;2023-03-14T02:11:31;11.60;99.90
44509;DHT22;30214;52.246;14.408;2023-03-14T02:14:03;11.60;99.90
44509;DHT22;30214;52.246;14.408;2023-03-14T02:16:41;11.50;99.90
44509;DHT22;30214;52.246;14.408;2023-03-14T02:19:45;11.40;99.90
44509;DHT22;30214;52.246;14.408;2023-03-14T02:22:33;11.40;99.90
44509;DHT22;30214;52.246;14.408;2023-03-14T02:25:08;11.40;99.90
44509;DHT22;30214;52.246;14.408;2023-03-14T02:27:40;11.40;99.90
44509;DHT22;30214;52.246;14.408;2023-03-14T02:30:10;11.40;99.90
44509;DHT22;30214;52.246;14.408;2023-03-14T02:32:43;11.30;99.90
44509;DHT22;30214;52.246;14.408;2023-03-14T02:35:19;11.40;99.90
44509;DHT22;30214;52.246;14.408;2023-03-14T02:37:51;11.30;99.90
44509;DHT22;30214;52.246;14.408;2023-03-14T02:40:22;11.30;99.90
44509;DHT22;30214;52.246;14.408;2023-03-14T02:42:52;11.30;99.90
44509;DHT22;30214;52.246;14.408;2023-03-14T02:45:38;11.20;99.90
44509;DHT22;30214;52.246;14.408;2023-03-14T02:48:14;11.30;99.90
44509;DHT22;30214;52.246;14.408;2023-03-14T02:50:43;11.20;99.90
44509;DHT22;30214;52.246;14.408;2023-03-14T02:53:13;11.20;99.90
44509;DHT22;30214;52.246;14.408;2023-03-14T02:55:45;11.30;99.90
44509;DHT22;30214;52.246;14.408;2023-03-14T02:58:15;11.20;99.90
44509;DHT22;30214;52.246;14.408;2023-03-14T03:00:44;11.20;99.90
44509;DHT22;30214;52.246;14.408;2023-03-14T03:03:12;11.20;99.90
44509;DHT22;30214;52.246;14.408;2023-03-14T03:05:40;11.20;99.90
44509;DHT22;30214;52.246;14.408;2023-03-14T03:08:08;11.20;99.90
44509;DHT22;30214;52.246;14.408;2023-03-14T03:10:36;11.20;99.90
44509;DHT22;30214;52.246;14.408;2023-03-14T03:13:03;11.30;99.90
44509;DHT22;30214;52.246;14.408;2023-03-14T03:15:32;11.30;99.90
44509;DHT22;30214;52.246;14.408;2023-03-14T03:17:59;11.40;99.90
44509;DHT22;30214;52.246;14.408;2023-03-14T03:20:26;11.30;99.90
44509;DHT22;30214;52.246;14.408;2023-03-14T03:22:53;11.30;99.90
44509;DHT22;30214;52.246;14.408;2023-03-14T03:25:20;11.40;99.90
44509;DHT22;30214;52.246;14.408;2023-03-14T03:27:49;11.40;99.90
44509;DHT22;30214;52.246;14.408;2023-03-14T03:30:17;11.40;99.90
44509;DHT22;30214;52.246;14.408;2023-03-14T03:32:47;11.30;99.90
44509;DHT22;30214;52.246;14.408;2023-03-14T03:35:14;11.40;99.90
44509;DHT22;30214;52.246;14.408;2023-03-14T03:37:42;11.40;99.90
44509;DHT22;30214;52.246;14.408;2023-03-14T03:40:10;11.40;99.90
44509;DHT22;30214;52.246;14.408;2023-03-14T03:42:37;11.40;99.90
44509;DHT22;30214;52.246;14.408;2023-03-14T03:45:08;11.40;99.90
44509;DHT22;30214;52.246;14.408;2023-03-14T03:47:42;11.30;99.90
44509;DHT22;30214;52.246;14.408;2023-03-14T03:50:11;11.30;99.90
44509;DHT22;30214;52.246;14.408;2023-03-14T03:52:38;11.30;99.90
44509;DHT22;30214;52.246;14.408;2023-03-14T03:55:06;11.30;99.90
44509;DHT22;30214;52.246;14.408;2023-03-14T03:57:34;11.40;99.90
44509;DHT22;30214;52.246;14.408;2023-03-14T04:00:01;11.30;99.90
44509;DHT22;30214;52.246;14.408;2023-03-14T04:02:40;11.30;99.90
44509;DHT22;30214;52.246;14.408;2023-03-14T04:05:09;11.30;99.90
44509;DHT22;30214;52.246;14.408;2023-03-14T04:07:41;11.30;99.90
44509;DHT22;30214;52.246;14.408;2023-03-14T04:10:09;11.30;99.90
44509;DHT22;30214;52.246;14.408;2023-03-14T04:12:40;11.30;99.90
44509;DHT22;30214;52.246;14.408;2023-03-14T04:15:18;11.30;99.90
44509;DHT22;30214;52.246;14.408;2023-03-14T04:17:50;11.30;99.90
44509;DHT22;30214;52.246;14.408;2023-03-14T04:20:17;11.20;99.90
44509;DHT22;30214;52.246;14.408;2023-03-14T04:22:46;11.20;99.90
44509;DHT22;30214;52.246;14.408;2023-03-14T04:25:14;11.20;99.90
44509;DHT22;30214;52.246;14.408;2023-03-14T04:27:47;11.20;99.90
44509;DHT22;30214;52.246;14.408;2023-03-14T04:30:19;11.20;99.90
44509;DHT22;30214;52.246;14.408;2023-03-14T04:32:55;11.20;99.90
44509;DHT22;30214;52.246;14.408;2023-03-14T04:35:24;11.20;99.90
44509;DHT22;30214;52.246;14.408;2023-03-14T04:37:57;11.10;99.90
44509;DHT22;30214;52.246;14.408;2023-03-14T04:40:25;11.00;99.90
44509;DHT22;30214;52.246;14.408;2023-03-14T04:42:57;11.00;99.90
44509;DHT22;30214;52.246;14.408;2023-03-14T04:45:24;11.00;99.90
44509;DHT22;30214;52.246;14.408;2023-03-14T04:47:51;11.00;99.90
44509;DHT22;30214;52.246;14.408;2023-03-14T04:50:19;10.90;99.90
44509;DHT22;30214;52.246;14.408;2023-03-14T04:52:48;10.90;99.90
44509;DHT22;30214;52.246;14.408;2023-03-14T04:55:16;10.90;99.90
44509;DHT22;30214;52.246;14.408;2023-03-14T04:57:44;10.90;99.90
44509;DHT22;30214;52.246;14.408;2023-03-14T05:00:12;10.90;99.90
44509;DHT22;30214;52.246;14.408;2023-03-14T05:03:05;10.90;99.90
44509;DHT22;30214;52.246;14.408;2023-03-14T05:05:45;10.90;99.90
44509;DHT22;30214;52.246;14.408;2023-03-14T05:08:33;10.80;99.90
44509;DHT22;30214;52.246;14.408;2023-03-14T05:11:22;10.80;99.90
44509;DHT22;30214;52.246;14.408;2023-03-14T05:14:24;10.90;99.90
44509;DHT22;30214;52.246;14.408;2023-03-14T05:16:54;10.80;99.90
44509;DHT22;30214;52.246;14.408;2023-03-14T05:19:48;10.80;99.90
44509;DHT22;30214;52.246;14.408;2023-03-14T05:22:47;10.70;99.90
44509;DHT22;30214;52.246;14.408;2023-03-14T05:25:35;10.70;99.90
44509;DHT22;30214;52.246;14.408;2023-03-14T05:28:14;10.70;99.90
44509;DHT22;30214;52.246;14.408;2023-03-14T05:30:59;10.70;99.90
44509;DHT22;30214;52.246;14.408;2023-03-14T05:33:46;10.60;99.90
44509;DHT22;30214;52.246;14.408;2023-03-14T05:36:32;10.70;99.90
44509;DHT22;30214;52.246;14.408;2023-03-14T05:39:16;10.60;99.90
44509;DHT22;30214;52.246;14.408;2023-03-14T05:42:19;10.60;99.90
44509;DHT22;30214;52.246;14.408;2023-03-14T05:45:11;10.60;99.90
44509;DHT22;30214;52.246;14.408;2023-03-14T05:48:10;10.60;99.90
44509;DHT22;30214;52.246;14.408;2023-03-14T05:50:45;10.70;99.90
44509;DHT22;30214;52.246;14.408;2023-03-14T05:53:21;10.60;99.90
44509;DHT22;30214;52.246;14.408;2023-03-14T05:55:54;10.60;99.90
44509;DHT22;30214;52.246;14.408;2023-03-14T05:58:57;10.60;99.90
44509;DHT22;30214;52.246;14.408;2023-03-14T06:01:42;10.60;99.90
44509;DHT22;30214;52.246;14.408;2023-03-14T06:04:15;10.60;99.90
44509;DHT22;30214;52.246;14.408;2023-03-14T06:06:47;10.70;99.90
44509;DHT22;30214;52.246;14.408;2023-03-14T06:09:15;10.70;99.90
44509;DHT22;30214;52.246;14.408;2023-03-14T06:11:42;10.60;99.90
44509;DHT22;30214;52.246;14.408;2023-03-14T06:14:10;10.60;99.90
44509;DHT22;30214;52.246;14.408;2023-03-14T06:16:42;10.70;99.90
44509;DHT22;30214;52.246;14.408;2023-03-14T06:19:10;10.70;99.90
44509;DHT22;30214;52.246;14.408;2023-03-14T06:21:38;10.70;99.90
44509;DHT22;30214;52.246;14.408;2023-03-14T06:24:05;10.70;99.90
44509;DHT22;30214;52.246;14.408;2023-03-14T06:26:38;10.80;99.90
44509;DHT22;30214;52.246;14.408;2023-03-14T06:29:05;10.80;99.90
44509;DHT22;30214;52.246;14.408;2023-03-14T06:31:34;10.90;99.90
44509;DHT22;30214;52.246;14.408;2023-03-14T06:34:05;11.00;99.90
44509;DHT22;30214;52.246;14.408;2023-03-14T06:36:32;10.90;99.90
44509;DHT22;30214;52.246;14.408;2023-03-14T06:38:59;11.00;99.90
44509;DHT22;30214;52.246;14.408;2023-03-14T06:41:29;11.00;99.90
44509;DHT22;30214;52.246;14.408;2023-03-14T06:43:58;11.00;99.90
44509;DHT22;30214;52.246;14.408;2023-03-14T06:46:26;11.10;99.90
44509;DHT22;30214;52.246;14.408;2023-03-14T06:48:53;11.20;99.90
44509;DHT22;30214;52.246;14.408;2023-03-14T06:51:22;11.20;99.90
44509;DHT22;30214;52.246;14.408;2023-03-14T06:53:49;11.20;99.90
44509;DHT22;30214;52.246;14.408;2023-03-14T06:56:19;11.30;99.90
44509;DHT22;30214;52.246;14.408;2023-03-14T06:58:47;11.30;99.90
44509;DHT22;30214;52.246;14.408;2023-03-14T07:01:21;11.40;99.90
44509;DHT22;30214;52.246;14.408;2023-03-14T07:03:50;11.60;99.90
44509;DHT22;30214;52.246;14.408;2023-03-14T07:06:17;11.70;99.90
44509;DHT22;30214;52.246;14.408;2023-03-14T07:08:46;11.80;99.90
44509;DHT22;30214;52.246;14.408;2023-03-14T07:11:15;11.90;99.90
44509;DHT22;30214;52.246;14.408;2023-03-14T07:13:42;11.90;99.90
44509;DHT22;30214;52.246;14.408;2023-03-14T07:16:10;11.80;99.90
44509;DHT22;30214;52.246;14.408;2023-03-14T07:18:37;11.80;99.90
44509;DHT22;30214;52.246;14.408;2023-03-14T07:21:06;11.80;99.90
44509;DHT22;30214;52.246;14.408;2023-03-14T07:23:35;11.80;99.90
44509;DHT22;30214;52.246;14.408;2023-03-14T07:26:04;11.80;99.90
44509;DHT22;30214;52.246;14.408;2023-03-14T07:28:33;11.90;99.90
44509;DHT22;30214;52.246;14.408;2023-03-14T07:31:07;11.90;99.90
44509;DHT22;30214;52.246;14.408;2023-03-14T07:33:34;11.90;99.90
44509;DHT22;30214;52.246;14.408;2023-03-14T07:36:02;11.90;99.90
44509;DHT22;30214;52.246;14.408;2023-03-14T07:38:30;11.90;99.90
44509;DHT22;30214;52.246;14.408;2023-03-14T07:41:25;11.90;99.90
44509;DHT22;30214;52.246;14.408;2023-03-14T07:44:18;11.90;99.90
44509;DHT22;30214;52.246;14.408;2023-03-14T07:46:45;11.90;99.90
44509;DHT22;30214;52.246;14.408;2023-03-14T07:49:12;11.90;99.90
44509;DHT22;30214;52.246;14.408;2023-03-14T07:51:39;11.90;99.90
44509;DHT22;30214;52.246;14.408;2023-03-14T07:54:06;11.90;99.90
44509;DHT22;30214;52.246;14.408;2023-03-14T07:56:34;12.00;99.90
44509;DHT22;30214;52.246;14.408;2023-03-14T07:59:02;12.00;99.90
44509;DHT22;30214;52.246;14.408;2023-03-14T08:01:29;12.10;99.90
44509;DHT22;30214;52.246;14.408;2023-03-14T08:03:56;12.10;99.90
44509;DHT22;30214;52.246;14.408;2023-03-14T08:06:24;12.10;99.90
44509;DHT22;30214;52.246;14.408;2023-03-14T08:08:51;12.10;99.90
44509;DHT22;30214;52.246;14.408;2023-03-14T08:11:18;12.20;99.90
44509;DHT22;30214;52.246;14.408;2023-03-14T08:13:47;12.20;99.90
44509;DHT22;30214;52.246;14.408;2023-03-14T08:16:15;12.30;99.90
44509;DHT22;30214;52.246;14.408;2023-03-14T08:18:43;12.30;99.90
44509;DHT22;30214;52.246;14.408;2023-03-14T08:21:10;12.30;99.90
44509;DHT22;30214;52.246;14.408;2023-03-14T08:23:37;12.30;99.90
44509;DHT22;30214;52.246;14.408;2023-03-14T08:26:05;12.30;99.90
44509;DHT22;30214;52.246;14.408;2023-03-14T08:28:32;12.30;99.90
44509;DHT22;30214;52.246;14.408;2023-03-14T08:31:01;12.40;99.90
44509;DHT22;30214;52.246;14.408;2023-03-14T08:33:29;12.40;99.90
44509;DHT22;30214;52.246;14.408;2023-03-14T08:35:58;12.40;99.90
44509;DHT22;30214;52.246;14.408;2023-03-14T08:38:26;12.50;99.90
44509;DHT22;30214;52.246;14.408;2023-03-14T08:40:56;12.50;99.90
44509;DHT22;30214;52.246;14.408;2023-03-14T08:43:24;12.50;99.90
44509;DHT22;30214;52.246;14.408;2023-03-14T08:45:51;12.50;99.90
44509;DHT22;30214;52.246;14.408;2023-03-14T08:48:19;12.50;99.90
44509;DHT22;30214;52.246;14.408;2023-03-14T08:50:46;12.40;99.90
44509;DHT22;30214;52.246;14.408;2023-03-14T08:53:14;12.50;99.90
44509;DHT22;30214;52.246;14.408;2023-03-14T08:55:41;12.60;99.90
44509;DHT22;30214;52.246;14.408;2023-03-14T08:58:08;12.70;99.90
44509;DHT22;30214;52.246;14.408;2023-03-14T09:00:35;12.80;99.90
44509;DHT22;30214;52.246;14.408;2023-03-14T09:03:02;12.90;99.90
44509;DHT22;30214;52.246;14.408;2023-03-14T09:05:32;13.00;99.90
44509;DHT22;30214;52.246;14.408;2023-03-14T09:07:59;13.00;99.90
44509;DHT22;30214;52.246;14.408;2023-03-14T09:10:27;12.90;99.90
44509;DHT22;30214;52.246;14.408;2023-03-14T09:12:54;13.00;99.90
44509;DHT22;30214;52.246;14.408;2023-03-14T09:15:22;12.90;99.90
44509;DHT22;30214;52.246;14.408;2023-03-14T09:17:52;13.00;99.90
44509;DHT22;30214;52.246;14.408;2023-03-14T09:20:19;12.90;99.90
44509;DHT22;30214;52.246;14.408;2023-03-14T09:22:48;12.90;99.90
44509;DHT22;30214;52.246;14.408;2023-03-14T09:25:15;13.00;99.90
44509;DHT22;30214;52.246;14.408;2023-03-14T09:27:42;13.00;99.90
44509;DHT22;30214;52.246;14.408;2023-03-14T09:30:10;12.90;99.90
44509;DHT22;30214;52.246;14.408;2023-03-14T09:32:38;12.80;99.90
44509;DHT22;30214;52.246;14.408;2023-03-14T09:35:05;12.90;99.90
44509;DHT22;30214;52.246;14.408;2023-03-14T09:37:32;13.10;99.90
44509;DHT22;30214;52.246;14.408;2023-03-14T09:40:00;13.00;99.90
44509;DHT22;30214;52.246;14.408;2023-03-14T09:42:36;13.10;99.90
44509;DHT22;30214;52.246;14.408;2023-03-14T09:45:09;13.40;99.90
44509;DHT22;30214;52.246;14.408;2023-03-14T09:47:38;13.60;99.90
44509;DHT22;30214;52.246;14.408;2023-03-14T09:50:12;13.60;99.90
44509;DHT22;30214;52.246;14.408;2023-03-14T09:52:43;13.60;99.90
44509;DHT22;30214;52.246;14.408;2023-03-14T09:55:16;13.70;99.90
44509;DHT22;30214;52.246;14.408;2023-03-14T09:57:45;13.70;99.90
44509;DHT22;30214;52.246;14.408;2023-03-14T10:00:16;13.60;99.90
44509;DHT22;30214;52.246;14.408;2023-03-14T10:02:51;13.50;99.90
44509;DHT22;30214;52.246;14.408;2023-03-14T10:05:23;13.50;99.90
44509;DHT22;30214;52.246;14.408;2023-03-14T10:07:53;13.40;99.90
44509;DHT22;30214;52.246;14.408;2023-03-14T10:10:25;13.40;99.90
44509;DHT22;30214;52.246;14.408;2023-03-14T10:12:56;13.60;99.90
44509;DHT22;30214;52.246;14.408;2023-03-14T10:15:26;13.70;99.90
44509;DHT22;30214;52.246;14.408;2023-03-14T10:17:54;14.00;99.90
44509;DHT22;30214;52.246;14.408;2023-03-14T10:20:32;14.10;99.90
44509;DHT22;30214;52.246;14.408;2023-03-14T10:23:01;14.30;99.90
44509;DHT22;30214;52.246;14.408;2023-03-14T10:25:32;14.40;99.90
44509;DHT22;30214;52.246;14.408;2023-03-14T10:28:00;14.60;99.90
44509;DHT22;30214;52.246;14.408;2023-03-14T10:30:38;14.70;99.90
44509;DHT22;30214;52.246;14.408;2023-03-14T10:33:11;14.80;99.90
44509;DHT22;30214;52.246;14.408;2023-03-14T10:35:43;14.50;99.90
44509;DHT22;30214;52.246;14.408;2023-03-14T10:38:13;14.40;99.90
44509;DHT22;30214;52.246;14.408;2023-03-14T10:40:47;14.50;99.90
44509;DHT22;30214;52.246;14.408;2023-03-14T10:43:17;14.50;99.90
44509;DHT22;30214;52.246;14.408;2023-03-14T10:45:52;14.50;99.90
44509;DHT22;30214;52.246;14.408;2023-03-14T10:48:29;14.50;99.90
44509;DHT22;30214;52.246;14.408;2023-03-14T10:51:02;14.40;99.90
44509;DHT22;30214;52.246;14.408;2023-03-14T10:53:39;14.50;99.90
44509;DHT22;30214;52.246;14.408;2023-03-14T10:56:12;14.40;99.90
44509;DHT22;30214;52.246;14.408;2023-03-14T10:58:41;14.40;99.90
44509;DHT22;30214;52.246;14.408;2023-03-14T11:01:21;14.20;99.90
44509;DHT22;30214;52.246;14.408;2023-03-14T11:04:03;14.20;99.90
44509;DHT22;30214;52.246;14.408;2023-03-14T11:06:39;14.20;99.90
44509;DHT22;30214;52.246;14.408;2023-03-14T11:09:11;14.20;99.90
44509;DHT22;30214;52.246;14.408;2023-03-14T11:11:46;14.20;99.90
44509;DHT22;30214;52.246;14.408;2023-03-14T11:14:23;14.20;99.90
44509;DHT22;30214;52.246;14.408;2023-03-14T11:17:00;14.20;99.90
44509;DHT22;30214;52.246;14.408;2023-03-14T11:19:42;14.30;99.90
44509;DHT22;30214;52.246;14.408;2023-03-14T11:22:21;14.30;99.90
44509;DHT22;30214;52.246;14.408;2023-03-14T11:25:17;14.30;99.90
44509;DHT22;30214;52.246;14.408;2023-03-14T11:27:55;14.20;99.90
44509;DHT22;30214;52.246;14.408;2023-03-14T11:30:33;14.20;99.90
44509;DHT22;30214;52.246;14.408;2023-03-14T11:33:07;14.20;99.90
44509;DHT22;30214;52.246;14.408;2023-03-14T11:35:45;14.20;99.90
44509;DHT22;30214;52.246;14.408;2023-03-14T11:38:26;14.20;99.90
44509;DHT22;30214;52.246;14.408;2023-03-14T11:40:58;14.10;99.90
44509;DHT22;30214;52.246;14.408;2023-03-14T11:43:30;14.10;99.90
44509;DHT22;30214;52.246;14.408;2023-03-14T11:46:04;14.10;99.90
44509;DHT22;30214;52.246;14.408;2023-03-14T11:48:40;14.10;99.90
44509;DHT22;30214;52.246;14.408;2023-03-14T11:51:15;14.10;99.90
44509;DHT22;30214;52.246;14.408;2023-03-14T11:53:51;14.10;99.90
44509;DHT22;30214;52.246;14.408;2023-03-14T11:56:29;14.10;99.90
44509;DHT22;30214;52.246;14.408;2023-03-14T11:59:04;14.20;99.90
44509;DHT22;30214;52.246;14.408;2023-03-14T12:01:44;14.30;99.90
44509;DHT22;30214;52.246;14.408;2023-03-14T12:04:25;14.30;99.90
44509;DHT22;30214;52.246;14.408;2023-03-14T12:07:02;14.30;99.90
44509;DHT22;30214;52.246;14.408;2023-03-14T12:09:30;14.30;99.90
44509;DHT22;30214;52.246;14.408;2023-03-14T12:11:59;14.10;99.90
44509;DHT22;30214;52.246;14.408;2023-03-14T12:14:32;14.10;99.90
44509;DHT22;30214;52.246;14.408;2023-03-14T12:17:05;14.00;99.90
44509;DHT22;30214;52.246;14.408;2023-03-14T12:19:35;14.10;99.90
44509;DHT22;30214;52.246;14.408;2023-03-14T12:22:21;14.20;99.90
44509;DHT22;30214;52.246;14.408;2023-03-14T12:24:54;14.30;99.90
44509;DHT22;30214;52.246;14.408;2023-03-14T12:28:02;14.40;99.90
44509;DHT22;30214;52.246;14.408;2023-03-14T12:30:34;14.50;99.90
44509;DHT22;30214;52.246;14.408;2023-03-14T12:33:29;14.50;99.90
44509;DHT22;30214;52.246;14.408;2023-03-14T12:36:03;14.40;99.90
44509;DHT22;30214;52.246;14.408;2023-03-14T12:38:47;14.20;99.90
44509;DHT22;30214;52.246;14.408;2023-03-14T12:41:22;14.00;99.90
44509;DHT22;30214;52.246;14.408;2023-03-14T12:43:52;13.80;99.90
44509;DHT22;30214;52.246;14.408;2023-03-14T12:46:23;13.60;99.90
44509;DHT22;30214;52.246;14.408;2023-03-14T12:48:56;13.30;99.90
44509;DHT22;30214;52.246;14.408;2023-03-14T12:51:35;13.00;99.90
44509;DHT22;30214;52.246;14.408;2023-03-14T12:54:27;12.80;99.90
44509;DHT22;30214;52.246;14.408;2023-03-14T12:57:09;12.60;99.90
44509;DHT22;30214;52.246;14.408;2023-03-14T12:59:51;12.70;99.90
44509;DHT22;30214;52.246;14.408;2023-03-14T13:02:26;12.90;99.90
44509;DHT22;30214;52.246;14.408;2023-03-14T13:05:01;12.90;99.90
44509;DHT22;30214;52.246;14.408;2023-03-14T13:07:36;12.90;99.90
44509;DHT22;30214;52.246;14.408;2023-03-14T13:10:31;13.00;99.90
44509;DHT22;30214;52.246;14.408;2023-03-14T13:13:15;13.10;99.90
44509;DHT22;30214;52.246;14.408;2023-03-14T13:15:49;13.30;99.90
44509;DHT22;30214;52.246;14.408;2023-03-14T13:18:29;13.40;99.90
44509;DHT22;30214;52.246;14.408;2023-03-14T13:21:01;13.50;99.90
44509;DHT22;30214;52.246;14.408;2023-03-14T13:23:31;13.60;99.90
44509;DHT22;30214;52.246;14.408;2023-03-14T13:26:01;13.50;99.90
44509;DHT22;30214;52.246;14.408;2023-03-14T13:28:30;13.50;99.90
44509;DHT22;30214;52.246;14.408;2023-03-14T13:30:59;13.50;99.90
44509;DHT22;30214;52.246;14.408;2023-03-14T13:33:29;13.50;99.90
44509;DHT22;30214;52.246;14.408;2023-03-14T13:35:58;13.50;99.90
44509;DHT22;30214;52.246;14.408;2023-03-14T13:38:27;13.40;99.90
44509;DHT22;30214;52.246;14.408;2023-03-14T13:40:56;13.30;99.90
44509;DHT22;30214;52.246;14.408;2023-03-14T13:43:28;13.20;99.90
44509;DHT22;30214;52.246;14.408;2023-03-14T13:46:03;13.30;99.90
44509;DHT22;30214;52.246;14.408;2023-03-14T13:48:33;13.30;99.90
44509;DHT22;30214;52.246;14.408;2023-03-14T13:51:05;13.20;99.90
44509;DHT22;30214;52.246;14.408;2023-03-14T13:53:44;13.30;99.90
44509;DHT22;30214;52.246;14.408;2023-03-14T13:56:13;13.40;99.90
44509;DHT22;30214;52.246;14.408;2023-03-14T13:58:41;13.50;99.90
44509;DHT22;30214;52.246;14.408;2023-03-14T14:01:13;13.60;99.90
44509;DHT22;30214;52.246;14.408;2023-03-14T14:03:45;13.60;99.90
44509;DHT22;30214;52.246;14.408;2023-03-14T14:06:33;13.50;99.90
44509;DHT22;30214;52.246;14.408;2023-03-14T14:09:09;13.50;99.90
44509;DHT22;30214;52.246;14.408;2023-03-14T14:11:41;13.60;99.90
44509;DHT22;30214;52.246;14.408;2023-03-14T14:14:13;13.70;99.90
44509;DHT22;30214;52.246;14.408;2023-03-14T14:16:44;13.60;99.90
44509;DHT22;30214;52.246;14.408;2023-03-14T14:19:15;13.70;99.90
44509;DHT22;30214;52.246;14.408;2023-03-14T14:21:43;13.60;99.90
44509;DHT22;30214;52.246;14.408;2023-03-14T14:24:12;13.50;99.90
44509;DHT22;30214;52.246;14.408;2023-03-14T14:26:41;13.50;99.90
44509;DHT22;30214;52.246;14.408;2023-03-14T14:29:24;13.50;99.90
44509;DHT22;30214;52.246;14.408;2023-03-14T14:32:03;13.60;99.90
44509;DHT22;30214;52.246;14.408;2023-03-14T14:34:43;13.60;99.90
44509;DHT22;30214;52.246;14.408;2023-03-14T14:37:23;13.70;99.90
44509;DHT22;30214;52.246;14.408;2023-03-14T14:39:55;13.70;99.90
44509;DHT22;30214;52.246;14.408;2023-03-14T14:42:26;13.80;99.90
44509;DHT22;30214;52.246;14.408;2023-03-14T14:44:56;13.70;99.90
44509;DHT22;30214;52.246;14.408;2023-03-14T14:47:25;13.70;99.90
44509;DHT22;30214;52.246;14.408;2023-03-14T14:49:59;13.70;99.90
44509;DHT22;30214;52.246;14.408;2023-03-14T14:52:37;13.70;99.90
44509;DHT22;30214;52.246;14.408;2023-03-14T14:55:17;13.80;99.90
44509;DHT22;30214;52.246;14.408;2023-03-14T14:57:49;13.80;99.90
44509;DHT22;30214;52.246;14.408;2023-03-14T15:00:20;13.80;99.90
44509;DHT22;30214;52.246;14.408;2023-03-14T15:02:49;13.80;99.90
44509;DHT22;30214;52.246;14.408;2023-03-14T15:05:20;13.80;99.90
44509;DHT22;30214;52.246;14.408;2023-03-14T15:07:49;13.70;99.90
44509;DHT22;30214;52.246;14.408;2023-03-14T15:10:18;13.60;99.90
44509;DHT22;30214;52.246;14.408;2023-03-14T15:12:46;13.50;99.90
44509;DHT22;30214;52.246;14.408;2023-03-14T15:15:15;13.40;99.90
44509;DHT22;30214;52.246;14.408;2023-03-14T15:17:43;13.40;99.90
44509;DHT22;30214;52.246;14.408;2023-03-14T15:20:12;13.40;99.90
44509;DHT22;30214;52.246;14.408;2023-03-14T15:22:44;13.50;99.90
44509;DHT22;30214;52.246;14.408;2023-03-14T15:25:12;13.40;99.90
44509;DHT22;30214;52.246;14.408;2023-03-14T15:27:39;13.40;99.90
44509;DHT22;30214;52.246;14.408;2023-03-14T15:30:10;13.40;99.90
44509;DHT22;30214;52.246;14.408;2023-03-14T15:32:41;13.30;99.90
44509;DHT22;30214;52.246;14.408;2023-03-14T15:35:09;13.30;99.90
44509;DHT22;30214;52.246;14.408;2023-03-14T15:37:36;13.30;99.90
44509;DHT22;30214;52.246;14.408;2023-03-14T15:40:06;13.30;99.90
44509;DHT22;30214;52.246;14.408;2023-03-14T15:42:39;13.50;99.90
44509;DHT22;30214;52.246;14.408;2023-03-14T15:45:07;13.50;99.90
44509;DHT22;30214;52.246;14.408;2023-03-14T15:47:35;13.50;99.90